sensor_id;sensor_type;location;lat;lon;timestamp;P1;durP1;ratioP1;P2;durP2;ratioP2
15082;SDS011;7640;53.116;6.878;2022-07-29T00:01:40;2.53;;;2.07;;
15082;SDS011;7640;53.116;6.878;2022-07-29T00:04:09;2.73;;;2.00;;
15082;SDS011;7640;53.116;6.878;2022-07-29T00:06:40;3.13;;;2.40;;
15082;SDS011;7640;53.116;6.878;2022-07-29T00:09:09;3.97;;;2.67;;
15082;SDS011;7640;53.116;6.878;2022-07-29T00:11:38;4.60;;;2.63;;
15082;SDS011;7640;53.116;6.878;2022-07-29T00:14:10;4.33;;;2.40;;
15082;SDS011;7640;53.116;6.878;2022-07-29T00:16:39;3.37;;;2.30;;
15082;SDS011;7640;53.116;6.878;2022-07-29T00:19:07;3.47;;;1.70;;
15082;SDS011;7640;53.116;6.878;2022-07-29T00:21:36;1.97;;;1.80;;
15082;SDS011;7640;53.116;6.878;2022-07-29T00:24:05;4.80;;;1.90;;
15082;SDS011;7640;53.116;6.878;2022-07-29T00:26:34;3.43;;;1.73;;
15082;SDS011;7640;53.116;6.878;2022-07-29T00:29:03;2.50;;;1.87;;
15082;SDS011;7640;53.116;6.878;2022-07-29T00:31:52;3.53;;;2.07;;
15082;SDS011;7640;53.116;6.878;2022-07-29T00:34:20;2.50;;;1.90;;
15082;SDS011;7640;53.116;6.878;2022-07-29T00:37:06;3.27;;;1.93;;
15082;SDS011;7640;53.116;6.878;2022-07-29T00:39:36;4.53;;;2.10;;
15082;SDS011;7640;53.116;6.878;2022-07-29T00:42:04;2.20;;;1.70;;
15082;SDS011;7640;53.116;6.878;2022-07-29T00:44:35;4.40;;;2.07;;
15082;SDS011;7640;53.116;6.878;2022-07-29T00:47:05;3.73;;;1.80;;
15082;SDS011;7640;53.116;6.878;2022-07-29T00:49:34;2.10;;;1.90;;
15082;SDS011;7640;53.116;6.878;2022-07-29T00:52:03;3.80;;;1.70;;
15082;SDS011;7640;53.116;6.878;2022-07-29T00:54:38;3.80;;;1.83;;
15082;SDS011;7640;53.116;6.878;2022-07-29T00:57:09;3.03;;;1.77;;
15082;SDS011;7640;53.116;6.878;2022-07-29T00:59:38;2.87;;;2.00;;
15082;SDS011;7640;53.116;6.878;2022-07-29T01:02:06;3.87;;;1.73;;
15082;SDS011;7640;53.116;6.878;2022-07-29T01:04:35;3.80;;;1.97;;
15082;SDS011;7640;53.116;6.878;2022-07-29T01:07:03;2.83;;;1.83;;
15082;SDS011;7640;53.116;6.878;2022-07-29T01:09:32;4.07;;;2.00;;
15082;SDS011;7640;53.116;6.878;2022-07-29T01:12:14;4.70;;;2.10;;
15082;SDS011;7640;53.116;6.878;2022-07-29T01:14:46;5.03;;;2.37;;
15082;SDS011;7640;53.116;6.878;2022-07-29T01:17:17;4.87;;;2.10;;
15082;SDS011;7640;53.116;6.878;2022-07-29T01:19:53;2.43;;;1.70;;
15082;SDS011;7640;53.116;6.878;2022-07-29T01:22:35;2.93;;;2.03;;
15082;SDS011;7640;53.116;6.878;2022-07-29T01:28:44;4.87;;;2.13;;
15082;SDS011;7640;53.116;6.878;2022-07-29T01:31:24;3.77;;;2.23;;
15082;SDS011;7640;53.116;6.878;2022-07-29T01:34:04;3.20;;;1.80;;
15082;SDS011;7640;53.116;6.878;2022-07-29T01:36:37;1.83;;;1.63;;
15082;SDS011;7640;53.116;6.878;2022-07-29T01:39:12;3.63;;;1.93;;
15082;SDS011;7640;53.116;6.878;2022-07-29T01:41:50;2.47;;;1.87;;
15082;SDS011;7640;53.116;6.878;2022-07-29T01:44:30;2.13;;;1.60;;
15082;SDS011;7640;53.116;6.878;2022-07-29T01:47:05;2.17;;;1.60;;
15082;SDS011;7640;53.116;6.878;2022-07-29T01:49:41;3.87;;;1.80;;
15082;SDS011;7640;53.116;6.878;2022-07-29T01:52:19;3.57;;;1.73;;
15082;SDS011;7640;53.116;6.878;2022-07-29T01:54:53;3.70;;;1.80;;
15082;SDS011;7640;53.116;6.878;2022-07-29T01:57:25;4.23;;;2.10;;
15082;SDS011;7640;53.116;6.878;2022-07-29T01:59:58;4.13;;;1.80;;
15082;SDS011;7640;53.116;6.878;2022-07-29T02:02:30;3.07;;;1.70;;
15082;SDS011;7640;53.116;6.878;2022-07-29T02:05:01;3.07;;;1.93;;
15082;SDS011;7640;53.116;6.878;2022-07-29T02:07:31;3.10;;;1.90;;
15082;SDS011;7640;53.116;6.878;2022-07-29T02:10:00;2.83;;;1.93;;
15082;SDS011;7640;53.116;6.878;2022-07-29T02:12:31;2.10;;;1.77;;
15082;SDS011;7640;53.116;6.878;2022-07-29T02:15:04;3.43;;;1.57;;
15082;SDS011;7640;53.116;6.878;2022-07-29T02:17:38;3.33;;;2.00;;
15082;SDS011;7640;53.116;6.878;2022-07-29T02:20:10;4.30;;;2.00;;
15082;SDS011;7640;53.116;6.878;2022-07-29T02:22:40;3.97;;;1.70;;
15082;SDS011;7640;53.116;6.878;2022-07-29T02:25:11;2.40;;;1.70;;
15082;SDS011;7640;53.116;6.878;2022-07-29T02:27:42;3.63;;;1.70;;
15082;SDS011;7640;53.116;6.878;2022-07-29T02:30:13;3.30;;;1.90;;
15082;SDS011;7640;53.116;6.878;2022-07-29T02:32:41;3.47;;;2.00;;
15082;SDS011;7640;53.116;6.878;2022-07-29T02:35:12;2.87;;;1.80;;
15082;SDS011;7640;53.116;6.878;2022-07-29T02:37:43;2.67;;;1.90;;
15082;SDS011;7640;53.116;6.878;2022-07-29T02:40:33;2.47;;;2.00;;
15082;SDS011;7640;53.116;6.878;2022-07-29T02:43:05;2.60;;;1.90;;
15082;SDS011;7640;53.116;6.878;2022-07-29T02:45:36;3.17;;;1.80;;
15082;SDS011;7640;53.116;6.878;2022-07-29T02:48:06;2.47;;;2.10;;
15082;SDS011;7640;53.116;6.878;2022-07-29T02:50:42;5.43;;;2.40;;
15082;SDS011;7640;53.116;6.878;2022-07-29T02:53:16;4.40;;;2.07;;
15082;SDS011;7640;53.116;6.878;2022-07-29T02:55:48;4.23;;;2.00;;
15082;SDS011;7640;53.116;6.878;2022-07-29T02:58:24;2.70;;;1.77;;
15082;SDS011;7640;53.116;6.878;2022-07-29T03:00:58;3.80;;;1.87;;
15082;SDS011;7640;53.116;6.878;2022-07-29T03:03:32;4.90;;;2.30;;
15082;SDS011;7640;53.116;6.878;2022-07-29T03:06:04;4.17;;;2.17;;
15082;SDS011;7640;53.116;6.878;2022-07-29T03:08:53;5.23;;;1.93;;
15082;SDS011;7640;53.116;6.878;2022-07-29T03:11:22;4.33;;;1.97;;
15082;SDS011;7640;53.116;6.878;2022-07-29T03:14:10;5.23;;;1.80;;
15082;SDS011;7640;53.116;6.878;2022-07-29T03:16:42;4.33;;;1.97;;
15082;SDS011;7640;53.116;6.878;2022-07-29T03:19:10;2.40;;;1.90;;
15082;SDS011;7640;53.116;6.878;2022-07-29T03:21:39;3.77;;;1.93;;
15082;SDS011;7640;53.116;6.878;2022-07-29T03:24:07;3.57;;;2.00;;
15082;SDS011;7640;53.116;6.878;2022-07-29T03:26:36;4.07;;;2.23;;
15082;SDS011;7640;53.116;6.878;2022-07-29T03:29:04;2.27;;;2.03;;
15082;SDS011;7640;53.116;6.878;2022-07-29T03:31:38;4.87;;;2.30;;
15082;SDS011;7640;53.116;6.878;2022-07-29T03:34:10;3.23;;;1.97;;
15082;SDS011;7640;53.116;6.878;2022-07-29T03:36:38;2.93;;;2.00;;
15082;SDS011;7640;53.116;6.878;2022-07-29T03:39:07;2.47;;;1.90;;
15082;SDS011;7640;53.116;6.878;2022-07-29T03:41:38;2.93;;;2.00;;
15082;SDS011;7640;53.116;6.878;2022-07-29T03:44:07;3.13;;;2.10;;
15082;SDS011;7640;53.116;6.878;2022-07-29T03:46:37;3.43;;;1.80;;
15082;SDS011;7640;53.116;6.878;2022-07-29T03:49:07;3.83;;;1.90;;
15082;SDS011;7640;53.116;6.878;2022-07-29T03:51:41;3.20;;;1.90;;
15082;SDS011;7640;53.116;6.878;2022-07-29T03:54:10;3.10;;;2.00;;
15082;SDS011;7640;53.116;6.878;2022-07-29T03:56:40;4.50;;;2.17;;
15082;SDS011;7640;53.116;6.878;2022-07-29T03:59:14;4.27;;;2.20;;
15082;SDS011;7640;53.116;6.878;2022-07-29T04:01:43;5.10;;;2.13;;
15082;SDS011;7640;53.116;6.878;2022-07-29T04:04:14;4.40;;;2.23;;
15082;SDS011;7640;53.116;6.878;2022-07-29T04:06:45;2.57;;;1.80;;
15082;SDS011;7640;53.116;6.878;2022-07-29T04:09:15;6.43;;;2.60;;
15082;SDS011;7640;53.116;6.878;2022-07-29T04:11:44;2.90;;;2.20;;
15082;SDS011;7640;53.116;6.878;2022-07-29T04:14:29;4.90;;;2.13;;
15082;SDS011;7640;53.116;6.878;2022-07-29T04:16:58;4.07;;;2.63;;
15082;SDS011;7640;53.116;6.878;2022-07-29T04:19:28;4.53;;;2.07;;
15082;SDS011;7640;53.116;6.878;2022-07-29T04:21:57;3.13;;;2.37;;
15082;SDS011;7640;53.116;6.878;2022-07-29T04:24:26;4.17;;;2.10;;
15082;SDS011;7640;53.116;6.878;2022-07-29T04:26:55;3.37;;;2.20;;
15082;SDS011;7640;53.116;6.878;2022-07-29T04:29:23;4.20;;;2.10;;
15082;SDS011;7640;53.116;6.878;2022-07-29T04:31:51;3.50;;;2.00;;
15082;SDS011;7640;53.116;6.878;2022-07-29T04:34:20;4.03;;;2.37;;
15082;SDS011;7640;53.116;6.878;2022-07-29T04:36:54;2.97;;;2.50;;
15082;SDS011;7640;53.116;6.878;2022-07-29T04:39:22;4.30;;;2.00;;
15082;SDS011;7640;53.116;6.878;2022-07-29T04:41:54;4.10;;;2.40;;
15082;SDS011;7640;53.116;6.878;2022-07-29T04:44:24;4.43;;;2.40;;
15082;SDS011;7640;53.116;6.878;2022-07-29T04:46:54;4.43;;;2.33;;
15082;SDS011;7640;53.116;6.878;2022-07-29T04:49:24;6.60;;;2.20;;
15082;SDS011;7640;53.116;6.878;2022-07-29T04:51:52;3.80;;;2.20;;
15082;SDS011;7640;53.116;6.878;2022-07-29T04:54:22;5.30;;;2.50;;
15082;SDS011;7640;53.116;6.878;2022-07-29T04:56:51;3.57;;;2.13;;
15082;SDS011;7640;53.116;6.878;2022-07-29T04:59:19;3.10;;;2.20;;
15082;SDS011;7640;53.116;6.878;2022-07-29T05:01:49;3.27;;;2.10;;
15082;SDS011;7640;53.116;6.878;2022-07-29T05:04:19;4.70;;;2.60;;
15082;SDS011;7640;53.116;6.878;2022-07-29T05:06:47;2.57;;;2.07;;
15082;SDS011;7640;53.116;6.878;2022-07-29T05:09:17;5.90;;;2.50;;
15082;SDS011;7640;53.116;6.878;2022-07-29T05:11:45;4.10;;;2.13;;
15082;SDS011;7640;53.116;6.878;2022-07-29T05:14:14;2.23;;;1.70;;
15082;SDS011;7640;53.116;6.878;2022-07-29T05:16:43;4.93;;;2.00;;
15082;SDS011;7640;53.116;6.878;2022-07-29T05:19:11;3.27;;;2.00;;
15082;SDS011;7640;53.116;6.878;2022-07-29T05:21:40;5.43;;;2.23;;
15082;SDS011;7640;53.116;6.878;2022-07-29T05:24:09;3.93;;;2.00;;
15082;SDS011;7640;53.116;6.878;2022-07-29T05:26:39;3.00;;;2.23;;
15082;SDS011;7640;53.116;6.878;2022-07-29T05:29:08;4.37;;;2.40;;
15082;SDS011;7640;53.116;6.878;2022-07-29T05:31:57;4.60;;;2.40;;
15082;SDS011;7640;53.116;6.878;2022-07-29T05:34:25;4.23;;;2.40;;
15082;SDS011;7640;53.116;6.878;2022-07-29T05:36:53;6.97;;;3.83;;
15082;SDS011;7640;53.116;6.878;2022-07-29T05:39:22;6.33;;;4.13;;
15082;SDS011;7640;53.116;6.878;2022-07-29T05:42:11;5.03;;;2.43;;
15082;SDS011;7640;53.116;6.878;2022-07-29T05:44:40;5.10;;;2.60;;
15082;SDS011;7640;53.116;6.878;2022-07-29T05:47:08;6.07;;;2.60;;
15082;SDS011;7640;53.116;6.878;2022-07-29T05:49:36;4.40;;;2.63;;
15082;SDS011;7640;53.116;6.878;2022-07-29T05:52:04;4.63;;;2.50;;
15082;SDS011;7640;53.116;6.878;2022-07-29T05:54:32;3.40;;;2.67;;
15082;SDS011;7640;53.116;6.878;2022-07-29T05:57:02;3.20;;;2.27;;
15082;SDS011;7640;53.116;6.878;2022-07-29T05:59:34;6.43;;;2.37;;
15082;SDS011;7640;53.116;6.878;2022-07-29T06:02:03;3.90;;;2.07;;
15082;SDS011;7640;53.116;6.878;2022-07-29T06:04:32;5.50;;;2.27;;
15082;SDS011;7640;53.116;6.878;2022-07-29T06:07:01;3.20;;;2.20;;
15082;SDS011;7640;53.116;6.878;2022-07-29T06:09:29;3.93;;;2.37;;
15082;SDS011;7640;53.116;6.878;2022-07-29T06:12:01;3.83;;;2.40;;
15082;SDS011;7640;53.116;6.878;2022-07-29T06:14:30;4.87;;;2.70;;
15082;SDS011;7640;53.116;6.878;2022-07-29T06:17:01;7.73;;;2.40;;
15082;SDS011;7640;53.116;6.878;2022-07-29T06:19:30;4.00;;;2.47;;
15082;SDS011;7640;53.116;6.878;2022-07-29T06:21:58;4.57;;;2.20;;
15082;SDS011;7640;53.116;6.878;2022-07-29T06:24:26;4.87;;;2.43;;
15082;SDS011;7640;53.116;6.878;2022-07-29T06:26:54;3.57;;;2.17;;
15082;SDS011;7640;53.116;6.878;2022-07-29T06:29:26;5.23;;;3.50;;
15082;SDS011;7640;53.116;6.878;2022-07-29T06:31:55;5.90;;;3.40;;
15082;SDS011;7640;53.116;6.878;2022-07-29T06:34:23;7.27;;;3.70;;
15082;SDS011;7640;53.116;6.878;2022-07-29T06:36:52;5.00;;;2.70;;
15082;SDS011;7640;53.116;6.878;2022-07-29T06:39:21;5.20;;;2.53;;
15082;SDS011;7640;53.116;6.878;2022-07-29T06:41:49;4.47;;;2.43;;
15082;SDS011;7640;53.116;6.878;2022-07-29T06:44:18;4.17;;;2.23;;
15082;SDS011;7640;53.116;6.878;2022-07-29T06:46:46;3.53;;;2.63;;
15082;SDS011;7640;53.116;6.878;2022-07-29T06:49:17;5.27;;;2.30;;
15082;SDS011;7640;53.116;6.878;2022-07-29T06:51:45;4.50;;;2.70;;
15082;SDS011;7640;53.116;6.878;2022-07-29T06:54:14;4.73;;;2.83;;
15082;SDS011;7640;53.116;6.878;2022-07-29T06:56:43;6.33;;;2.37;;
15082;SDS011;7640;53.116;6.878;2022-07-29T06:59:12;4.17;;;2.77;;
15082;SDS011;7640;53.116;6.878;2022-07-29T07:01:41;4.13;;;2.47;;
15082;SDS011;7640;53.116;6.878;2022-07-29T07:04:11;2.30;;;2.10;;
15082;SDS011;7640;53.116;6.878;2022-07-29T07:06:41;4.27;;;2.70;;
15082;SDS011;7640;53.116;6.878;2022-07-29T07:09:10;2.90;;;2.50;;
15082;SDS011;7640;53.116;6.878;2022-07-29T07:11:38;5.53;;;2.83;;
15082;SDS011;7640;53.116;6.878;2022-07-29T07:14:06;6.23;;;3.80;;
15082;SDS011;7640;53.116;6.878;2022-07-29T07:16:34;3.27;;;2.97;;
15082;SDS011;7640;53.116;6.878;2022-07-29T07:19:02;7.23;;;5.27;;
15082;SDS011;7640;53.116;6.878;2022-07-29T07:21:31;7.30;;;5.33;;
15082;SDS011;7640;53.116;6.878;2022-07-29T07:24:02;7.03;;;4.30;;
15082;SDS011;7640;53.116;6.878;2022-07-29T07:26:31;4.50;;;2.80;;
15082;SDS011;7640;53.116;6.878;2022-07-29T07:29:00;4.20;;;2.90;;
15082;SDS011;7640;53.116;6.878;2022-07-29T07:31:28;3.50;;;2.17;;
15082;SDS011;7640;53.116;6.878;2022-07-29T07:33:56;3.67;;;2.50;;
15082;SDS011;7640;53.116;6.878;2022-07-29T07:36:27;5.20;;;2.80;;
15082;SDS011;7640;53.116;6.878;2022-07-29T07:38:55;6.50;;;3.80;;
15082;SDS011;7640;53.116;6.878;2022-07-29T07:41:25;8.57;;;4.20;;
15082;SDS011;7640;53.116;6.878;2022-07-29T07:43:57;6.57;;;3.23;;
15082;SDS011;7640;53.116;6.878;2022-07-29T07:46:26;4.60;;;3.00;;
15082;SDS011;7640;53.116;6.878;2022-07-29T07:48:54;6.23;;;2.73;;
15082;SDS011;7640;53.116;6.878;2022-07-29T07:51:22;5.67;;;2.70;;
15082;SDS011;7640;53.116;6.878;2022-07-29T07:53:52;6.83;;;2.97;;
15082;SDS011;7640;53.116;6.878;2022-07-29T07:56:22;5.27;;;2.90;;
15082;SDS011;7640;53.116;6.878;2022-07-29T07:58:52;3.93;;;2.90;;
15082;SDS011;7640;53.116;6.878;2022-07-29T08:01:20;5.13;;;2.80;;
15082;SDS011;7640;53.116;6.878;2022-07-29T08:03:49;6.63;;;3.10;;
15082;SDS011;7640;53.116;6.878;2022-07-29T08:06:17;15.93;;;4.57;;
15082;SDS011;7640;53.116;6.878;2022-07-29T08:08:45;9.67;;;3.60;;
15082;SDS011;7640;53.116;6.878;2022-07-29T08:11:13;6.73;;;3.27;;
15082;SDS011;7640;53.116;6.878;2022-07-29T08:13:42;6.67;;;3.13;;
15082;SDS011;7640;53.116;6.878;2022-07-29T08:16:12;5.90;;;3.33;;
15082;SDS011;7640;53.116;6.878;2022-07-29T08:18:42;6.60;;;4.27;;
15082;SDS011;7640;53.116;6.878;2022-07-29T08:21:12;5.13;;;2.90;;
15082;SDS011;7640;53.116;6.878;2022-07-29T08:23:42;5.83;;;3.43;;
15082;SDS011;7640;53.116;6.878;2022-07-29T08:26:24;9.50;;;3.77;;
15082;SDS011;7640;53.116;6.878;2022-07-29T08:28:52;7.70;;;3.40;;
15082;SDS011;7640;53.116;6.878;2022-07-29T08:31:21;3.77;;;2.63;;
15082;SDS011;7640;53.116;6.878;2022-07-29T08:33:50;6.43;;;3.28;;
15082;SDS011;7640;53.116;6.878;2022-07-29T08:36:18;7.70;;;3.60;;
15082;SDS011;7640;53.116;6.878;2022-07-29T08:38:47;7.40;;;3.13;;
15082;SDS011;7640;53.116;6.878;2022-07-29T08:41:15;7.00;;;3.00;;
15082;SDS011;7640;53.116;6.878;2022-07-29T08:43:45;4.05;;;2.88;;
15082;SDS011;7640;53.116;6.878;2022-07-29T08:46:13;5.70;;;3.47;;
15082;SDS011;7640;53.116;6.878;2022-07-29T08:48:44;4.80;;;2.93;;
15082;SDS011;7640;53.116;6.878;2022-07-29T08:51:13;7.00;;;3.10;;
15082;SDS011;7640;53.116;6.878;2022-07-29T08:53:44;5.05;;;3.03;;
15082;SDS011;7640;53.116;6.878;2022-07-29T08:56:15;4.50;;;3.05;;
15082;SDS011;7640;53.116;6.878;2022-07-29T08:58:46;5.72;;;2.90;;
15082;SDS011;7640;53.116;6.878;2022-07-29T09:01:21;4.70;;;3.05;;
15082;SDS011;7640;53.116;6.878;2022-07-29T09:04:08;6.07;;;2.97;;
15082;SDS011;7640;53.116;6.878;2022-07-29T09:06:42;4.90;;;3.20;;
15082;SDS011;7640;53.116;6.878;2022-07-29T09:09:12;6.65;;;4.05;;
15082;SDS011;7640;53.116;6.878;2022-07-29T09:11:41;4.50;;;3.58;;
15082;SDS011;7640;53.116;6.878;2022-07-29T09:14:12;5.47;;;3.13;;
15082;SDS011;7640;53.116;6.878;2022-07-29T09:16:47;3.80;;;2.63;;
15082;SDS011;7640;53.116;6.878;2022-07-29T09:19:22;3.95;;;2.63;;
15082;SDS011;7640;53.116;6.878;2022-07-29T09:21:55;6.15;;;2.80;;
15082;SDS011;7640;53.116;6.878;2022-07-29T09:24:26;10.23;;;2.83;;
15082;SDS011;7640;53.116;6.878;2022-07-29T09:29:55;4.35;;;2.92;;
15082;SDS011;7640;53.116;6.878;2022-07-29T09:32:26;3.80;;;2.88;;
15082;SDS011;7640;53.116;6.878;2022-07-29T09:35:16;5.85;;;3.20;;
15082;SDS011;7640;53.116;6.878;2022-07-29T09:37:46;4.40;;;2.75;;
15082;SDS011;7640;53.116;6.878;2022-07-29T09:40:15;3.78;;;2.70;;
15082;SDS011;7640;53.116;6.878;2022-07-29T09:42:45;10.60;;;6.00;;
15082;SDS011;7640;53.116;6.878;2022-07-29T09:45:25;5.93;;;4.20;;
15082;SDS011;7640;53.116;6.878;2022-07-29T09:47:56;3.67;;;3.13;;
15082;SDS011;7640;53.116;6.878;2022-07-29T09:50:37;4.65;;;2.70;;
15082;SDS011;7640;53.116;6.878;2022-07-29T09:53:06;4.28;;;2.85;;
15082;SDS011;7640;53.116;6.878;2022-07-29T09:55:46;3.58;;;2.53;;
15082;SDS011;7640;53.116;6.878;2022-07-29T09:58:17;5.43;;;3.20;;
15082;SDS011;7640;53.116;6.878;2022-07-29T10:00:49;4.35;;;3.00;;
15082;SDS011;7640;53.116;6.878;2022-07-29T10:03:21;3.38;;;2.65;;
15082;SDS011;7640;53.116;6.878;2022-07-29T10:06:05;4.88;;;2.70;;
15082;SDS011;7640;53.116;6.878;2022-07-29T10:08:36;4.43;;;2.92;;
15082;SDS011;7640;53.116;6.878;2022-07-29T10:11:09;6.55;;;3.50;;
15082;SDS011;7640;53.116;6.878;2022-07-29T10:13:40;4.53;;;3.00;;
15082;SDS011;7640;53.116;6.878;2022-07-29T10:16:10;3.50;;;2.60;;
15082;SDS011;7640;53.116;6.878;2022-07-29T10:18:39;4.78;;;2.70;;
15082;SDS011;7640;53.116;6.878;2022-07-29T10:21:11;3.75;;;2.90;;
15082;SDS011;7640;53.116;6.878;2022-07-29T10:24:00;5.38;;;2.97;;
15082;SDS011;7640;53.116;6.878;2022-07-29T10:26:29;5.28;;;3.00;;
15082;SDS011;7640;53.116;6.878;2022-07-29T10:28:57;4.40;;;2.80;;
15082;SDS011;7640;53.116;6.878;2022-07-29T10:31:28;5.60;;;2.92;;
15082;SDS011;7640;53.116;6.878;2022-07-29T10:34:07;4.85;;;2.97;;
15082;SDS011;7640;53.116;6.878;2022-07-29T10:36:49;4.53;;;3.10;;
15082;SDS011;7640;53.116;6.878;2022-07-29T10:39:32;5.43;;;2.90;;
15082;SDS011;7640;53.116;6.878;2022-07-29T10:42:16;3.15;;;2.85;;
15082;SDS011;7640;53.116;6.878;2022-07-29T10:44:59;3.42;;;2.45;;
15082;SDS011;7640;53.116;6.878;2022-07-29T10:47:31;4.53;;;2.97;;
15082;SDS011;7640;53.116;6.878;2022-07-29T10:50:01;5.75;;;3.00;;
15082;SDS011;7640;53.116;6.878;2022-07-29T10:55:30;6.15;;;3.10;;
15082;SDS011;7640;53.116;6.878;2022-07-29T10:58:11;4.38;;;2.83;;
15082;SDS011;7640;53.116;6.878;2022-07-29T11:00:43;6.25;;;2.70;;
15082;SDS011;7640;53.116;6.878;2022-07-29T11:06:19;5.93;;;2.90;;
15082;SDS011;7640;53.116;6.878;2022-07-29T11:11:50;5.97;;;3.70;;
15082;SDS011;7640;53.116;6.878;2022-07-29T11:14:20;5.53;;;3.53;;
15082;SDS011;7640;53.116;6.878;2022-07-29T11:17:23;4.20;;;3.15;;
15082;SDS011;7640;53.116;6.878;2022-07-29T11:19:54;3.47;;;2.80;;
15082;SDS011;7640;53.116;6.878;2022-07-29T11:23:16;6.28;;;2.95;;
15082;SDS011;7640;53.116;6.878;2022-07-29T11:28:54;9.23;;;3.10;;
15082;SDS011;7640;53.116;6.878;2022-07-29T11:31:33;4.28;;;3.05;;
15082;SDS011;7640;53.116;6.878;2022-07-29T11:34:15;4.35;;;3.60;;
15082;SDS011;7640;53.116;6.878;2022-07-29T11:40:10;6.53;;;3.45;;
15082;SDS011;7640;53.116;6.878;2022-07-29T11:42:52;4.57;;;3.40;;
15082;SDS011;7640;53.116;6.878;2022-07-29T11:45:21;5.28;;;3.30;;
15082;SDS011;7640;53.116;6.878;2022-07-29T11:48:15;4.70;;;3.47;;
15082;SDS011;7640;53.116;6.878;2022-07-29T11:50:55;3.55;;;2.70;;
15082;SDS011;7640;53.116;6.878;2022-07-29T11:53:25;5.88;;;3.22;;
15082;SDS011;7640;53.116;6.878;2022-07-29T11:55:58;5.28;;;3.10;;
15082;SDS011;7640;53.116;6.878;2022-07-29T11:58:30;6.15;;;3.40;;
15082;SDS011;7640;53.116;6.878;2022-07-29T12:01:03;4.85;;;3.17;;
15082;SDS011;7640;53.116;6.878;2022-07-29T12:03:32;7.47;;;3.20;;
15082;SDS011;7640;53.116;6.878;2022-07-29T12:06:20;6.28;;;3.47;;
15082;SDS011;7640;53.116;6.878;2022-07-29T12:08:49;8.43;;;3.67;;
15082;SDS011;7640;53.116;6.878;2022-07-29T12:11:19;5.65;;;3.42;;
15082;SDS011;7640;53.116;6.878;2022-07-29T12:13:50;6.70;;;3.45;;
15082;SDS011;7640;53.116;6.878;2022-07-29T12:16:19;5.13;;;3.88;;
15082;SDS011;7640;53.116;6.878;2022-07-29T12:18:55;4.72;;;3.25;;
15082;SDS011;7640;53.116;6.878;2022-07-29T12:21:25;4.93;;;3.25;;
15082;SDS011;7640;53.116;6.878;2022-07-29T12:23:54;5.63;;;3.72;;
15082;SDS011;7640;53.116;6.878;2022-07-29T12:26:34;5.60;;;3.83;;
15082;SDS011;7640;53.116;6.878;2022-07-29T12:29:07;6.57;;;3.60;;
15082;SDS011;7640;53.116;6.878;2022-07-29T12:31:59;6.30;;;3.80;;
15082;SDS011;7640;53.116;6.878;2022-07-29T12:34:28;7.68;;;3.72;;
15082;SDS011;7640;53.116;6.878;2022-07-29T12:36:57;11.77;;;4.18;;
15082;SDS011;7640;53.116;6.878;2022-07-29T12:39:25;8.50;;;4.32;;
15082;SDS011;7640;53.116;6.878;2022-07-29T12:41:54;7.05;;;3.75;;
15082;SDS011;7640;53.116;6.878;2022-07-29T12:44:44;7.05;;;3.58;;
15082;SDS011;7640;53.116;6.878;2022-07-29T12:47:14;8.70;;;3.30;;
15082;SDS011;7640;53.116;6.878;2022-07-29T12:49:44;6.70;;;3.70;;
15082;SDS011;7640;53.116;6.878;2022-07-29T12:52:29;8.80;;;3.88;;
15082;SDS011;7640;53.116;6.878;2022-07-29T12:54:59;5.47;;;3.58;;
15082;SDS011;7640;53.116;6.878;2022-07-29T12:57:28;7.20;;;3.83;;
15082;SDS011;7640;53.116;6.878;2022-07-29T13:00:06;6.10;;;3.40;;
15082;SDS011;7640;53.116;6.878;2022-07-29T13:02:38;4.53;;;3.30;;
15082;SDS011;7640;53.116;6.878;2022-07-29T13:05:10;7.55;;;3.40;;
15082;SDS011;7640;53.116;6.878;2022-07-29T13:07:38;7.45;;;3.30;;
15082;SDS011;7640;53.116;6.878;2022-07-29T13:10:22;8.60;;;4.03;;
15082;SDS011;7640;53.116;6.878;2022-07-29T13:13:01;9.32;;;3.47;;
15082;SDS011;7640;53.116;6.878;2022-07-29T13:15:33;13.02;;;4.72;;
15082;SDS011;7640;53.116;6.878;2022-07-29T13:18:02;9.43;;;4.72;;
15082;SDS011;7640;53.116;6.878;2022-07-29T13:20:53;7.95;;;3.78;;
15082;SDS011;7640;53.116;6.878;2022-07-29T13:23:22;8.15;;;4.15;;
15082;SDS011;7640;53.116;6.878;2022-07-29T13:25:50;6.32;;;4.35;;
15082;SDS011;7640;53.116;6.878;2022-07-29T13:28:20;7.88;;;4.68;;
15082;SDS011;7640;53.116;6.878;2022-07-29T13:30:50;9.25;;;3.83;;
15082;SDS011;7640;53.116;6.878;2022-07-29T13:33:18;7.03;;;3.67;;
15082;SDS011;7640;53.116;6.878;2022-07-29T13:35:46;8.43;;;3.45;;
15082;SDS011;7640;53.116;6.878;2022-07-29T13:38:15;6.75;;;3.70;;
15082;SDS011;7640;53.116;6.878;2022-07-29T13:40:43;7.40;;;4.00;;
15082;SDS011;7640;53.116;6.878;2022-07-29T13:43:12;7.00;;;3.60;;
15082;SDS011;7640;53.116;6.878;2022-07-29T13:45:40;7.80;;;3.53;;
15082;SDS011;7640;53.116;6.878;2022-07-29T13:48:10;5.40;;;3.33;;
15082;SDS011;7640;53.116;6.878;2022-07-29T13:50:40;6.55;;;3.28;;
15082;SDS011;7640;53.116;6.878;2022-07-29T13:53:09;4.85;;;4.07;;
15082;SDS011;7640;53.116;6.878;2022-07-29T13:55:43;5.30;;;3.53;;
15082;SDS011;7640;53.116;6.878;2022-07-29T13:58:12;7.40;;;3.40;;
15082;SDS011;7640;53.116;6.878;2022-07-29T14:00:40;4.80;;;3.10;;
15082;SDS011;7640;53.116;6.878;2022-07-29T14:03:10;5.75;;;3.60;;
15082;SDS011;7640;53.116;6.878;2022-07-29T14:05:38;6.15;;;3.00;;
15082;SDS011;7640;53.116;6.878;2022-07-29T14:08:06;4.72;;;2.80;;
15082;SDS011;7640;53.116;6.878;2022-07-29T14:10:35;7.90;;;3.08;;
15082;SDS011;7640;53.116;6.878;2022-07-29T14:13:04;5.50;;;3.05;;
15082;SDS011;7640;53.116;6.878;2022-07-29T14:15:50;6.07;;;3.20;;
15082;SDS011;7640;53.116;6.878;2022-07-29T14:18:20;5.35;;;3.33;;
15082;SDS011;7640;53.116;6.878;2022-07-29T14:20:48;6.18;;;3.28;;
15082;SDS011;7640;53.116;6.878;2022-07-29T14:23:17;6.00;;;3.67;;
15082;SDS011;7640;53.116;6.878;2022-07-29T14:25:45;6.30;;;3.33;;
15082;SDS011;7640;53.116;6.878;2022-07-29T14:28:14;6.20;;;2.70;;
15082;SDS011;7640;53.116;6.878;2022-07-29T14:30:43;8.23;;;3.15;;
15082;SDS011;7640;53.116;6.878;2022-07-29T14:33:11;7.05;;;2.80;;
15082;SDS011;7640;53.116;6.878;2022-07-29T14:35:41;4.43;;;2.33;;
15082;SDS011;7640;53.116;6.878;2022-07-29T14:38:09;8.40;;;2.72;;
15082;SDS011;7640;53.116;6.878;2022-07-29T14:40:37;4.32;;;2.67;;
15082;SDS011;7640;53.116;6.878;2022-07-29T14:43:06;5.57;;;2.42;;
15082;SDS011;7640;53.116;6.878;2022-07-29T14:45:34;5.93;;;2.42;;
15082;SDS011;7640;53.116;6.878;2022-07-29T14:48:02;6.25;;;2.40;;
15082;SDS011;7640;53.116;6.878;2022-07-29T14:50:30;4.90;;;2.70;;
15082;SDS011;7640;53.116;6.878;2022-07-29T14:53:00;4.70;;;2.45;;
15082;SDS011;7640;53.116;6.878;2022-07-29T14:55:29;4.47;;;2.88;;
15082;SDS011;7640;53.116;6.878;2022-07-29T14:57:57;5.00;;;2.65;;
15082;SDS011;7640;53.116;6.878;2022-07-29T15:00:36;5.68;;;2.60;;
15082;SDS011;7640;53.116;6.878;2022-07-29T15:03:04;7.20;;;2.33;;
15082;SDS011;7640;53.116;6.878;2022-07-29T15:05:36;9.27;;;7.85;;
15082;SDS011;7640;53.116;6.878;2022-07-29T15:08:09;5.60;;;3.58;;
15082;SDS011;7640;53.116;6.878;2022-07-29T15:10:37;5.18;;;2.47;;
15082;SDS011;7640;53.116;6.878;2022-07-29T15:13:05;5.90;;;2.80;;
15082;SDS011;7640;53.116;6.878;2022-07-29T15:15:33;6.05;;;2.72;;
15082;SDS011;7640;53.116;6.878;2022-07-29T15:18:04;7.50;;;3.70;;
15082;SDS011;7640;53.116;6.878;2022-07-29T15:20:35;5.20;;;2.58;;
15082;SDS011;7640;53.116;6.878;2022-07-29T15:23:03;7.85;;;2.90;;
15082;SDS011;7640;53.116;6.878;2022-07-29T15:25:36;4.25;;;2.22;;
15082;SDS011;7640;53.116;6.878;2022-07-29T15:28:07;6.70;;;2.30;;
15082;SDS011;7640;53.116;6.878;2022-07-29T15:30:36;8.05;;;2.50;;
15082;SDS011;7640;53.116;6.878;2022-07-29T15:33:07;4.45;;;1.98;;
15082;SDS011;7640;53.116;6.878;2022-07-29T15:35:36;4.68;;;2.20;;
15082;SDS011;7640;53.116;6.878;2022-07-29T15:38:06;3.72;;;2.10;;
15082;SDS011;7640;53.116;6.878;2022-07-29T15:40:37;3.95;;;2.20;;
15082;SDS011;7640;53.116;6.878;2022-07-29T15:43:07;4.53;;;2.33;;
15082;SDS011;7640;53.116;6.878;2022-07-29T15:45:35;2.75;;;1.80;;
15082;SDS011;7640;53.116;6.878;2022-07-29T15:48:06;2.92;;;1.55;;
15082;SDS011;7640;53.116;6.878;2022-07-29T15:50:40;3.67;;;1.65;;